createdAt,value
2024-02-24T00:00:14.065Z,3.88
2024-02-24T00:01:18.364Z,5.28
2024-02-24T00:02:20.063Z,3.38
2024-02-24T00:04:27.281Z,4.18
2024-02-24T00:05:29.177Z,3.95
2024-02-24T00:06:30.869Z,5.65
2024-02-24T00:07:32.770Z,6.05
2024-02-24T00:08:36.861Z,3.97
2024-02-24T00:09:38.820Z,4.03
2024-02-24T00:10:43.747Z,5.13
2024-02-24T00:11:45.746Z,5.88
2024-02-24T00:12:50.139Z,4.55
2024-02-24T00:13:54.888Z,5.28
2024-02-24T00:14:56.555Z,2.67
2024-02-24T00:16:59.981Z,6.47
2024-02-24T00:19:03.442Z,4.00
2024-02-24T00:20:09.354Z,3.58
2024-02-24T00:21:11.102Z,3.40
2024-02-24T00:23:17.428Z,4.28
2024-02-24T00:24:19.217Z,5.38
2024-02-24T00:25:20.935Z,5.30
2024-02-24T00:26:25.067Z,2.72
2024-02-24T00:27:26.772Z,4.20
2024-02-24T00:28:28.446Z,4.40
2024-02-24T00:29:30.264Z,7.32
2024-02-24T00:31:33.586Z,4.03
2024-02-24T00:33:37.294Z,7.40
2024-02-24T00:34:39.146Z,4.40
2024-02-24T00:35:41.537Z,3.05
2024-02-24T00:36:43.231Z,3.85
2024-02-24T00:38:50.810Z,2.78
2024-02-24T00:39:53.065Z,4.03
2024-02-24T00:40:56.985Z,4.72
2024-02-24T00:41:58.858Z,2.05
2024-02-24T00:44:02.606Z,2.72
2024-02-24T00:46:08.359Z,5.15
2024-02-24T00:47:10.192Z,4.45
2024-02-24T00:48:12.018Z,2.35
2024-02-24T00:50:17.717Z,3.25
2024-02-24T00:52:21.109Z,4.13
2024-02-24T00:54:24.840Z,5.10
2024-02-24T00:55:26.520Z,3.47
2024-02-24T00:57:30.157Z,6.82
2024-02-24T00:58:31.775Z,4.22
2024-02-24T00:59:38.066Z,5.50
2024-02-24T01:00:39.902Z,5.18
2024-02-24T01:02:43.284Z,5.00
2024-02-24T01:03:45.074Z,5.00
2024-02-24T01:05:48.612Z,4.45
2024-02-24T01:06:52.034Z,2.53
2024-02-24T01:07:59.665Z,6.50
2024-02-24T01:09:01.349Z,3.80
2024-02-24T01:10:03.373Z,4.07
2024-02-24T01:11:06.754Z,7.32
2024-02-24T01:12:08.544Z,3.63
2024-02-24T01:13:10.575Z,4.45
2024-02-24T01:14:12.408Z,5.22
2024-02-24T01:15:14.153Z,4.85
2024-02-24T01:17:20.041Z,5.82
2024-02-24T01:18:24.566Z,3.25
2024-02-24T01:19:26.644Z,4.05
2024-02-24T01:20:30.849Z,6.10
2024-02-24T01:21:32.661Z,4.57
2024-02-24T01:22:34.394Z,9.60
2024-02-24T01:23:36.156Z,5.57
2024-02-24T01:24:37.821Z,5.45
2024-02-24T01:25:39.821Z,6.03
2024-02-24T01:26:41.981Z,4.25
2024-02-24T01:27:43.739Z,6.57
2024-02-24T01:28:49.504Z,4.10
2024-02-24T01:29:52.213Z,5.05
2024-02-24T01:30:53.862Z,4.93
2024-02-24T01:32:57.496Z,3.90
2024-02-24T01:33:59.494Z,5.38
2024-02-24T01:35:02.310Z,5.53
2024-02-24T01:36:04.367Z,4.32
2024-02-24T01:37:06.035Z,4.40
2024-02-24T01:39:10.239Z,4.63
2024-02-24T01:40:12.198Z,5.65
2024-02-24T01:41:14.172Z,6.63
2024-02-24T01:42:15.839Z,4.30
2024-02-24T01:43:28.034Z,10.52
2024-02-24T01:44:32.547Z,5.50
2024-02-24T01:45:34.228Z,3.60
2024-02-24T01:46:38.109Z,6.43
2024-02-24T01:47:42.412Z,3.30
2024-02-24T01:48:44.530Z,4.75
2024-02-24T01:49:47.513Z,3.05
2024-02-24T01:50:50.847Z,4.50
2024-02-24T01:51:56.805Z,7.65
2024-02-24T01:52:59.491Z,3.80
2024-02-24T01:54:04.356Z,3.13
2024-02-24T01:55:06.857Z,4.72
2024-02-24T01:56:11.106Z,3.72
2024-02-24T01:57:13.626Z,5.50
2024-02-24T01:58:18.482Z,4.78
2024-02-24T01:59:20.417Z,3.05
2024-02-24T02:12:44.543Z,4.65
2024-02-24T02:13:46.851Z,4.80
2024-02-24T02:15:57.946Z,4.45
2024-02-24T02:16:59.768Z,4.80
2024-02-24T02:19:05.588Z,6.18
2024-02-24T02:20:08.721Z,9.32
2024-02-24T02:21:12.242Z,5.13
2024-02-24T02:22:19.240Z,9.40
2024-02-24T02:23:21.548Z,7.45
2024-02-24T02:24:27.237Z,4.40
2024-02-24T02:25:29.056Z,6.88
2024-02-24T02:26:30.825Z,6.82
2024-02-24T02:28:35.495Z,5.95
2024-02-24T02:29:37.246Z,5.50
2024-02-24T02:31:40.576Z,6.70
2024-02-24T02:33:44.537Z,6.53
2024-02-24T02:34:46.290Z,4.15
2024-02-24T02:36:49.750Z,7.22
2024-02-24T02:38:55.087Z,5.07
2024-02-24T02:39:56.741Z,4.05
2024-02-24T02:42:04.878Z,7.80
2024-02-24T02:43:07.063Z,6.35
2024-02-24T02:44:09.803Z,6.07
2024-02-24T02:45:11.573Z,6.57
2024-02-24T02:46:17.998Z,3.90
2024-02-24T02:47:23.734Z,6.00
2024-02-24T02:48:26.343Z,7.60
2024-02-24T02:49:28.405Z,7.80
2024-02-24T02:50:30.179Z,5.63
2024-02-24T02:51:31.960Z,4.65
2024-02-24T02:53:37.358Z,6.10
2024-02-24T02:54:39.430Z,4.18
2024-02-24T02:55:41.354Z,5.50
2024-02-24T02:56:45.340Z,7.25
2024-02-24T02:57:47.221Z,8.77
2024-02-24T02:58:53.507Z,7.05
2024-02-24T02:59:55.276Z,7.40
2024-02-24T03:00:57.138Z,4.35
2024-02-24T03:02:00.257Z,4.32
2024-02-24T03:03:09.196Z,5.18
2024-02-24T03:04:10.970Z,4.50
2024-02-24T03:06:18.905Z,3.95
2024-02-24T03:07:23.210Z,4.72
2024-02-24T03:08:33.980Z,4.70
2024-02-24T03:09:38.271Z,4.05
2024-02-24T03:10:42.552Z,3.42
2024-02-24T03:11:47.060Z,4.97
2024-02-24T03:12:51.265Z,3.60
2024-02-24T03:14:54.541Z,6.78
2024-02-24T03:16:58.275Z,7.32
2024-02-24T03:17:59.987Z,6.57
2024-02-24T03:19:02.132Z,6.28
2024-02-24T03:20:05.319Z,8.93
2024-02-24T03:21:07.136Z,6.85
2024-02-24T03:23:15.058Z,6.35
2024-02-24T03:24:16.743Z,9.18
2024-02-24T03:26:22.739Z,4.75
2024-02-24T03:27:25.173Z,4.18
2024-02-24T03:28:27.483Z,2.08
2024-02-24T03:29:29.333Z,3.17
2024-02-24T03:31:34.992Z,4.25
2024-02-24T03:32:39.810Z,3.67
2024-02-24T03:34:45.582Z,4.32
2024-02-24T03:36:49.121Z,3.27
2024-02-24T03:37:52.067Z,3.13
2024-02-24T03:38:58.356Z,3.17
2024-02-24T03:40:00.403Z,3.60
2024-02-24T03:41:03.047Z,2.78
2024-02-24T03:42:07.433Z,3.95
2024-02-24T03:43:09.141Z,6.18
2024-02-24T03:45:15.125Z,7.17
2024-02-24T03:46:17.173Z,6.90
2024-02-24T03:47:18.963Z,6.88
2024-02-24T03:48:20.985Z,4.80
2024-02-24T03:49:22.930Z,7.32
2024-02-24T03:50:27.000Z,8.75
2024-02-24T03:51:29.346Z,6.45
2024-02-24T03:52:31.205Z,5.55
2024-02-24T03:53:33.082Z,4.05
2024-02-24T03:54:34.841Z,7.25
2024-02-24T03:55:36.471Z,6.70
2024-02-24T03:57:39.946Z,7.15
2024-02-24T04:00:51.688Z,4.65
2024-02-24T04:01:53.502Z,5.88
2024-02-24T04:03:59.351Z,6.07
2024-02-24T04:05:02.126Z,7.35
2024-02-24T04:06:04.778Z,5.95
2024-02-24T04:07:06.756Z,6.63
2024-02-24T04:09:10.173Z,2.95
2024-02-24T04:10:12.306Z,3.40
2024-02-24T04:11:14.176Z,2.80
2024-02-24T04:12:15.978Z,3.38
2024-02-24T04:13:21.489Z,3.20
2024-02-24T04:14:24.072Z,2.38
2024-02-24T04:15:25.816Z,2.70
2024-02-24T04:17:31.454Z,3.10
2024-02-24T04:18:33.976Z,3.28
2024-02-24T04:19:35.874Z,2.30
2024-02-24T04:21:41.371Z,2.97
2024-02-24T04:22:43.438Z,3.33
2024-02-24T04:23:45.513Z,1.48
2024-02-24T04:24:47.357Z,3.08
2024-02-24T04:25:49.298Z,2.60
2024-02-24T04:26:51.194Z,2.22
2024-02-24T04:27:52.848Z,1.77
2024-02-24T04:29:56.280Z,1.48
2024-02-24T04:30:57.960Z,1.20
2024-02-24T04:33:04.481Z,1.27
2024-02-24T04:34:06.501Z,2.13
2024-02-24T04:35:11.357Z,3.30
2024-02-24T04:36:13.245Z,1.10
2024-02-24T04:37:15.938Z,1.73
2024-02-24T04:38:19.793Z,4.38
2024-02-24T04:39:22.209Z,2.63
2024-02-24T04:40:25.900Z,1.00
2024-02-24T04:42:29.270Z,4.25
2024-02-24T04:44:35.295Z,11.52
2024-02-24T04:45:41.555Z,11.82
2024-02-24T04:46:43.300Z,11.25
2024-02-24T04:47:45.453Z,6.75
2024-02-24T04:48:49.906Z,9.77
2024-02-24T04:49:52.626Z,6.68
2024-02-24T04:51:02.230Z,9.13
2024-02-24T04:52:05.848Z,4.70
2024-02-24T04:53:07.813Z,11.32
2024-02-24T04:54:11.778Z,3.95
2024-02-24T04:55:13.660Z,3.20
2024-02-24T04:56:17.873Z,3.70
2024-02-24T04:57:21.968Z,4.07
2024-02-24T04:58:25.766Z,6.20
2024-02-24T04:59:28.524Z,4.82
2024-02-24T05:02:09.175Z,5.03
2024-02-24T05:03:10.940Z,2.65
2024-02-24T05:05:14.484Z,3.13
2024-02-24T05:06:16.391Z,4.22
2024-02-24T05:07:20.503Z,7.72
2024-02-24T05:08:22.228Z,5.05
2024-02-24T05:09:24.232Z,4.82
2024-02-24T05:10:27.193Z,3.05
2024-02-24T05:11:29.042Z,4.47
2024-02-24T05:12:30.818Z,6.00
2024-02-24T05:14:34.535Z,3.80
2024-02-24T05:15:36.604Z,3.53
2024-02-24T05:16:41.515Z,4.35
2024-02-24T05:17:44.060Z,4.70
2024-02-24T05:18:48.476Z,5.20
2024-02-24T05:19:50.282Z,3.92
2024-02-24T05:21:56.054Z,4.00
2024-02-24T05:22:58.086Z,3.05
2024-02-24T05:24:02.294Z,2.38
2024-02-24T05:25:04.478Z,3.63
2024-02-24T05:26:06.106Z,2.50
2024-02-24T05:27:07.806Z,1.73
2024-02-24T05:28:10.275Z,0.90
2024-02-24T05:29:12.255Z,3.10
2024-02-24T05:30:14.440Z,1.63
2024-02-24T05:31:16.972Z,3.70
2024-02-24T05:32:18.694Z,2.47
2024-02-24T05:33:20.800Z,1.80
2024-02-24T05:34:22.868Z,1.45
2024-02-24T05:35:24.770Z,4.20
2024-02-24T05:36:26.725Z,1.70
2024-02-24T05:37:28.680Z,2.20
2024-02-24T05:39:31.949Z,1.77
2024-02-24T05:41:37.952Z,1.95
2024-02-24T05:42:39.790Z,3.35
2024-02-24T05:43:41.934Z,4.53
2024-02-24T05:44:43.666Z,2.55
2024-02-24T05:46:47.308Z,5.43
2024-02-24T05:47:51.415Z,5.13
2024-02-24T05:48:53.309Z,3.20
2024-02-24T05:49:55.203Z,4.07
2024-02-24T05:51:59.138Z,3.42
2024-02-24T05:53:03.487Z,3.72
2024-02-24T05:54:05.322Z,3.00
2024-02-24T05:55:08.889Z,3.47
2024-02-24T05:56:10.668Z,3.33
2024-02-24T05:58:13.953Z,3.53
2024-02-24T06:00:20.349Z,6.28
2024-02-24T06:01:21.971Z,16.83
2024-02-24T06:03:27.426Z,19.85
2024-02-24T06:04:31.240Z,19.27
2024-02-24T06:05:33.928Z,17.60
2024-02-24T06:06:35.780Z,12.80
2024-02-24T06:07:40.077Z,13.18
2024-02-24T06:08:45.067Z,16.63
2024-02-24T06:09:49.068Z,17.77
2024-02-24T06:10:50.839Z,10.45
2024-02-24T06:11:52.846Z,14.77
2024-02-24T06:12:57.036Z,10.77
2024-02-24T06:13:58.697Z,4.88
2024-02-24T06:16:02.418Z,5.77
2024-02-24T06:17:04.701Z,8.75
2024-02-24T06:18:06.772Z,5.10
2024-02-24T06:19:08.521Z,6.28
2024-02-24T06:20:13.179Z,8.15
2024-02-24T06:21:15.422Z,4.43
2024-02-24T06:22:17.332Z,4.45
2024-02-24T06:23:19.204Z,2.60
2024-02-24T06:24:21.177Z,7.57
2024-02-24T06:25:23.688Z,4.53
2024-02-24T06:26:27.919Z,5.10
2024-02-24T06:27:32.266Z,2.67
2024-02-24T06:28:34.009Z,4.50
2024-02-24T06:30:38.740Z,3.53
2024-02-24T06:31:40.365Z,3.00
2024-02-24T06:32:42.133Z,4.43
2024-02-24T06:33:44.018Z,2.72
2024-02-24T06:34:46.673Z,6.43
2024-02-24T06:35:50.878Z,3.15
2024-02-24T06:36:52.619Z,3.47
2024-02-24T06:37:54.417Z,3.85
2024-02-24T06:38:58.607Z,7.45
2024-02-24T06:40:03.575Z,3.67
2024-02-24T06:41:05.339Z,2.60
2024-02-24T06:42:07.112Z,4.85
2024-02-24T06:43:08.871Z,3.67
2024-02-24T06:44:10.923Z,2.95
2024-02-24T06:45:12.684Z,3.08
2024-02-24T06:47:28.383Z,4.97
2024-02-24T06:48:34.146Z,2.45
2024-02-24T06:49:36.883Z,3.95
2024-02-24T06:50:38.691Z,3.17
2024-02-24T06:51:41.241Z,6.10
2024-02-24T06:52:42.916Z,3.20
2024-02-24T06:53:44.703Z,3.63
2024-02-24T06:54:46.352Z,4.75
2024-02-24T06:56:58.485Z,4.45
2024-02-24T06:58:02.022Z,2.75
2024-02-24T06:59:07.814Z,3.28
2024-02-24T07:00:10.610Z,4.50
2024-02-24T07:01:23.754Z,6.88
2024-02-24T07:02:26.080Z,2.55
2024-02-24T07:03:28.107Z,2.45
2024-02-24T07:04:31.902Z,3.05
2024-02-24T07:05:33.705Z,3.65
2024-02-24T07:06:38.691Z,4.18
2024-02-24T07:07:40.567Z,4.28
2024-02-24T07:08:42.484Z,2.53
2024-02-24T07:09:44.147Z,4.43
2024-02-24T07:10:45.952Z,2.53
2024-02-24T07:11:47.869Z,2.80
2024-02-24T07:12:50.257Z,2.63
2024-02-24T07:13:52.079Z,2.42
2024-02-24T07:14:53.884Z,4.10
2024-02-24T07:16:57.223Z,3.05
2024-02-24T07:17:59.095Z,3.47
2024-02-24T07:19:00.958Z,2.45
2024-02-24T07:20:02.894Z,3.05
2024-02-24T07:21:05.357Z,3.08
2024-02-24T07:22:07.120Z,2.00
2024-02-24T07:24:10.919Z,2.63
2024-02-24T07:25:14.720Z,1.83
2024-02-24T07:27:18.103Z,4.63
2024-02-24T07:29:21.421Z,2.78
2024-02-24T07:31:24.711Z,1.63
2024-02-24T07:33:28.533Z,1.95
2024-02-24T07:34:34.529Z,3.20
2024-02-24T07:35:36.274Z,3.10
2024-02-24T07:36:38.121Z,2.80
2024-02-24T07:38:43.858Z,2.88
2024-02-24T07:39:45.920Z,1.73
2024-02-24T07:40:47.624Z,3.60
2024-02-24T07:41:49.302Z,3.53
2024-02-24T07:42:55.614Z,3.60
2024-02-24T07:43:57.403Z,2.20
2024-02-24T07:46:01.869Z,2.55
2024-02-24T07:47:04.630Z,3.65
2024-02-24T07:48:08.833Z,3.30
2024-02-24T07:49:13.177Z,4.03
2024-02-24T07:50:17.337Z,6.53
2024-02-24T07:51:21.641Z,4.03
2024-02-24T07:52:23.389Z,2.17
2024-02-24T07:54:28.907Z,6.60
2024-02-24T07:55:32.110Z,4.28
2024-02-24T07:56:34.008Z,4.38
2024-02-24T07:57:35.904Z,2.80
2024-02-24T07:58:37.698Z,3.47
2024-02-24T08:02:14.227Z,2.78
2024-02-24T08:03:18.468Z,4.22
2024-02-24T08:04:21.910Z,4.25
2024-02-24T08:05:23.880Z,3.58
2024-02-24T08:06:25.756Z,9.10
2024-02-24T08:07:28.734Z,6.13
2024-02-24T08:08:31.335Z,5.15
2024-02-24T08:09:38.437Z,4.53
2024-02-24T08:10:40.104Z,6.15
2024-02-24T08:12:44.288Z,4.13
2024-02-24T08:13:47.275Z,5.05
2024-02-24T08:14:49.298Z,3.55
2024-02-24T08:15:51.275Z,2.78
2024-02-24T08:16:55.064Z,3.38
2024-02-24T08:18:58.934Z,4.28
2024-02-24T08:20:00.815Z,3.05
2024-02-24T08:21:08.397Z,2.95
2024-02-24T08:22:10.342Z,2.58
2024-02-24T08:24:17.433Z,3.75
2024-02-24T08:25:22.285Z,2.65
2024-02-24T08:26:24.025Z,3.03
2024-02-24T08:28:29.819Z,3.23
2024-02-24T08:29:34.172Z,3.17
2024-02-24T08:30:36.557Z,3.63
2024-02-24T08:31:39.701Z,3.25
2024-02-24T08:32:41.532Z,4.32
2024-02-24T08:34:48.003Z,7.47
2024-02-24T08:35:51.033Z,4.35
2024-02-24T08:36:53.224Z,3.53
2024-02-24T08:37:55.108Z,3.42
2024-02-24T08:40:01.303Z,4.00
2024-02-24T08:42:06.024Z,3.80
2024-02-24T08:43:10.300Z,3.38
2024-02-24T08:44:14.723Z,4.03
2024-02-24T08:45:16.625Z,4.28
2024-02-24T08:46:20.630Z,3.10
2024-02-24T08:47:22.393Z,2.83
2024-02-24T08:49:26.604Z,2.92
2024-02-24T08:50:30.904Z,3.13
2024-02-24T08:51:32.705Z,2.78
2024-02-24T08:52:46.142Z,4.80
2024-02-24T08:53:58.820Z,4.57
2024-02-24T08:55:00.658Z,2.75
2024-02-24T08:57:08.385Z,4.22
2024-02-24T08:58:10.134Z,2.97
2024-02-24T08:59:18.998Z,3.08
2024-02-24T09:00:20.866Z,3.80
2024-02-24T09:02:24.654Z,3.78
2024-02-24T09:03:26.578Z,2.20
2024-02-24T09:04:28.302Z,2.05
2024-02-24T09:06:32.805Z,3.08
2024-02-24T09:07:39.451Z,1.98
2024-02-24T09:08:41.374Z,2.40
2024-02-24T09:09:43.208Z,9.13
2024-02-24T09:11:47.683Z,3.25
2024-02-24T09:12:49.528Z,5.03
2024-02-24T09:13:53.722Z,2.88
2024-02-24T09:14:55.601Z,2.70
2024-02-24T09:15:57.482Z,3.92
2024-02-24T09:18:00.932Z,2.13
2024-02-24T09:19:03.087Z,3.38
2024-02-24T09:20:09.926Z,2.30
2024-02-24T09:21:14.237Z,2.40
2024-02-24T09:22:16.091Z,2.58
2024-02-24T09:24:19.662Z,5.57
2024-02-24T09:25:22.867Z,3.17
2024-02-24T09:26:27.384Z,1.92
2024-02-24T09:27:30.053Z,2.22
2024-02-24T09:28:34.155Z,2.28
2024-02-24T09:29:35.881Z,4.22
2024-02-24T09:31:41.417Z,3.72
2024-02-24T09:32:43.266Z,4.55
2024-02-24T09:33:45.254Z,2.88
2024-02-24T09:34:47.230Z,3.60
2024-02-24T09:35:49.685Z,2.97
2024-02-24T09:36:51.384Z,5.28
2024-02-24T09:38:57.942Z,2.85
2024-02-24T09:40:04.452Z,2.03
2024-02-24T09:41:06.553Z,2.40
2024-02-24T09:43:15.130Z,2.40
2024-02-24T09:44:17.711Z,3.28
2024-02-24T09:45:23.831Z,2.38
2024-02-24T09:46:31.018Z,3.83
2024-02-24T09:47:33.566Z,5.05
2024-02-24T09:48:35.459Z,2.22
2024-02-24T09:49:40.435Z,2.50
2024-02-24T09:50:42.796Z,2.70
2024-02-24T09:51:49.302Z,2.05
2024-02-24T09:52:51.037Z,2.33
2024-02-24T09:54:54.353Z,2.40
2024-02-24T09:56:58.792Z,2.22
2024-02-24T09:58:01.543Z,1.80
2024-02-24T09:59:07.213Z,2.25
2024-02-24T10:00:11.550Z,4.97
2024-02-24T10:01:16.957Z,3.83
2024-02-24T10:02:20.836Z,2.40
2024-02-24T10:03:26.422Z,1.85
2024-02-24T10:04:28.402Z,1.45
2024-02-24T10:05:32.430Z,2.40
2024-02-24T10:06:40.668Z,4.15
2024-02-24T10:07:42.456Z,1.77
2024-02-24T10:09:48.369Z,1.90
2024-02-24T10:10:50.562Z,1.67
2024-02-24T10:11:53.246Z,1.75
2024-02-24T10:12:59.536Z,3.05
2024-02-24T10:14:01.279Z,1.98
2024-02-24T10:16:07.577Z,1.98
2024-02-24T10:17:09.421Z,3.22
2024-02-24T10:18:11.496Z,3.25
2024-02-24T10:19:13.671Z,2.20
2024-02-24T10:20:15.540Z,1.83
2024-02-24T10:21:17.830Z,2.97
2024-02-24T10:22:20.366Z,1.50
2024-02-24T10:23:22.196Z,1.50
2024-02-24T10:24:26.887Z,1.60
2024-02-24T10:26:32.633Z,1.77
2024-02-24T10:27:34.968Z,3.13
2024-02-24T10:28:36.812Z,1.30
2024-02-24T10:30:41.108Z,1.45
2024-02-24T10:31:46.040Z,1.63
2024-02-24T10:32:52.060Z,1.92
2024-02-24T10:33:54.695Z,1.40
2024-02-24T10:34:57.374Z,1.63
2024-02-24T10:36:03.437Z,1.33
2024-02-24T10:37:05.275Z,3.78
2024-02-24T10:38:18.719Z,1.27
2024-02-24T10:39:35.230Z,1.48
2024-02-24T10:40:41.641Z,1.52
2024-02-24T10:41:47.694Z,1.35
2024-02-24T10:42:54.226Z,1.77
2024-02-24T10:44:10.731Z,1.33
2024-02-24T10:45:22.356Z,2.85
2024-02-24T10:46:27.108Z,3.15
2024-02-24T10:47:29.176Z,1.88
2024-02-24T10:48:31.191Z,1.95
2024-02-24T10:49:35.370Z,3.30
2024-02-24T10:50:37.413Z,1.00
2024-02-24T10:51:39.678Z,1.90
2024-02-24T10:52:41.939Z,3.25
2024-02-24T10:53:48.736Z,2.00
2024-02-24T10:54:54.546Z,1.52
2024-02-24T10:56:03.280Z,1.10
2024-02-24T10:57:06.639Z,2.20
2024-02-24T10:58:11.183Z,2.55
2024-02-24T10:59:13.036Z,1.42
2024-02-24T11:02:21.836Z,2.17
2024-02-24T11:03:24.374Z,1.80
2024-02-24T11:04:26.450Z,2.38
2024-02-24T11:05:34.382Z,2.63
2024-02-24T11:06:53.661Z,1.20
2024-02-24T11:07:58.553Z,1.10
2024-02-24T11:09:01.515Z,1.15
2024-02-24T11:10:03.490Z,2.85
2024-02-24T11:11:10.116Z,2.10
2024-02-24T11:12:12.730Z,2.53
2024-02-24T11:13:14.857Z,2.08
2024-02-24T11:14:22.545Z,2.30
2024-02-24T11:15:25.448Z,0.77
2024-02-24T11:16:27.213Z,1.48
2024-02-24T11:18:54.407Z,0.77
2024-02-24T11:19:56.165Z,0.80
2024-02-24T11:22:04.346Z,0.90
2024-02-24T11:23:25.952Z,1.38
2024-02-24T11:24:32.655Z,1.00
2024-02-24T11:25:34.752Z,1.08
2024-02-24T11:26:37.745Z,1.10
2024-02-24T11:27:41.847Z,3.00
2024-02-24T11:28:49.879Z,2.75
2024-02-24T11:29:51.768Z,0.73
2024-02-24T11:32:14.731Z,1.00
2024-02-24T11:33:29.566Z,0.70
2024-02-24T11:34:35.686Z,2.90
2024-02-24T11:35:38.061Z,1.08
2024-02-24T11:36:42.059Z,1.00
2024-02-24T11:37:43.988Z,0.88
2024-02-24T11:38:48.830Z,1.35
2024-02-24T11:39:53.178Z,1.00
2024-02-24T11:40:56.515Z,0.82
2024-02-24T11:41:58.637Z,1.00
2024-02-24T11:43:00.421Z,0.90
2024-02-24T11:45:06.065Z,1.77
2024-02-24T11:46:12.887Z,1.23
2024-02-24T11:47:20.644Z,1.08
2024-02-24T11:48:23.515Z,9.02
2024-02-24T11:49:26.602Z,1.13
2024-02-24T11:50:28.322Z,2.38
2024-02-24T11:51:30.163Z,1.30
2024-02-24T11:52:33.190Z,0.85
2024-02-24T11:53:35.265Z,0.95
2024-02-24T11:54:40.975Z,0.93
2024-02-24T11:55:43.517Z,1.02
2024-02-24T11:56:45.445Z,0.93
2024-02-24T11:57:47.189Z,0.65
2024-02-24T11:58:51.323Z,1.63
2024-02-24T12:00:56.554Z,0.90
2024-02-24T12:01:58.468Z,0.88
2024-02-24T12:04:04.250Z,0.60
2024-02-24T12:05:18.452Z,1.45
2024-02-24T12:06:25.113Z,1.17
2024-02-24T12:07:28.113Z,29.02
2024-02-24T12:08:30.623Z,0.90
2024-02-24T12:09:32.547Z,1.42
2024-02-24T12:10:38.499Z,0.60
2024-02-24T12:11:43.090Z,2.38
2024-02-24T12:12:45.007Z,0.75
2024-02-24T12:13:48.958Z,0.80
2024-02-24T12:14:55.141Z,0.57
2024-02-24T12:15:58.942Z,1.23
2024-02-24T12:17:00.642Z,2.05
2024-02-24T12:19:07.818Z,1.38
2024-02-24T12:20:11.551Z,0.80
2024-02-24T12:21:15.927Z,0.90
2024-02-24T12:22:17.627Z,0.93
2024-02-24T12:24:31.847Z,0.57
2024-02-24T12:25:37.162Z,2.30
2024-02-24T12:26:39.040Z,0.60
2024-02-24T12:27:41.966Z,0.57
2024-02-24T12:28:46.410Z,1.00
2024-02-24T12:29:48.320Z,0.60
2024-02-24T12:30:50.196Z,0.60
2024-02-24T12:32:56.582Z,0.73
2024-02-24T12:33:58.926Z,0.70
2024-02-24T12:35:07.026Z,1.25
2024-02-24T12:36:11.408Z,0.57
2024-02-24T12:37:13.212Z,1.88
2024-02-24T12:39:21.914Z,1.27
2024-02-24T12:40:29.167Z,0.85
2024-02-24T12:41:33.532Z,0.80
2024-02-24T12:42:40.331Z,1.70
2024-02-24T12:43:42.842Z,1.88
2024-02-24T12:44:47.226Z,1.30
2024-02-24T12:45:50.910Z,0.98
2024-02-24T12:46:53.480Z,0.70
2024-02-24T12:47:58.916Z,0.60
2024-02-24T12:49:03.007Z,0.95
2024-02-24T12:50:05.193Z,2.00
2024-02-24T12:51:06.965Z,2.28
2024-02-24T12:53:10.458Z,0.80
2024-02-24T12:54:15.416Z,1.15
2024-02-24T12:55:18.310Z,0.70
2024-02-24T12:56:20.078Z,0.68
2024-02-24T12:58:25.968Z,3.35
2024-02-24T12:59:29.900Z,1.40
2024-02-24T13:00:31.835Z,3.03
2024-02-24T13:01:33.731Z,1.10
2024-02-24T13:02:36.297Z,0.60
2024-02-24T13:03:38.151Z,2.38
2024-02-24T13:04:40.025Z,1.67
2024-02-24T13:05:42.007Z,1.52
2024-02-24T13:06:44.050Z,0.80
2024-02-24T13:07:45.786Z,0.98
2024-02-24T13:09:51.891Z,0.80
2024-02-24T13:10:53.813Z,2.33
2024-02-24T13:11:56.840Z,0.80
2024-02-24T13:13:01.429Z,1.42
2024-02-24T13:14:03.268Z,0.90
2024-02-24T13:15:05.944Z,0.80
2024-02-24T13:16:09.728Z,0.90
2024-02-24T13:17:11.680Z,1.95
2024-02-24T13:18:13.527Z,0.75
2024-02-24T13:19:15.311Z,0.95
2024-02-24T13:21:19.363Z,0.73
2024-02-24T13:22:21.619Z,0.70
2024-02-24T13:23:23.413Z,2.55
2024-02-24T13:24:25.207Z,3.25
2024-02-24T13:26:29.809Z,0.90
2024-02-24T13:27:31.533Z,2.30
2024-02-24T13:28:33.168Z,1.27
2024-02-24T13:29:34.875Z,0.70
2024-02-24T13:30:37.131Z,0.80
2024-02-24T13:31:38.930Z,1.35
2024-02-24T13:33:43.181Z,0.60
2024-02-24T13:34:47.274Z,0.73
2024-02-24T13:35:48.987Z,1.33
2024-02-24T13:36:50.833Z,0.68
2024-02-24T13:38:55.790Z,2.47
2024-02-24T13:40:00.086Z,3.03
2024-02-24T13:41:01.810Z,0.70
2024-02-24T13:42:03.914Z,2.28
2024-02-24T13:43:05.718Z,0.65
2024-02-24T13:46:14.504Z,1.02
2024-02-24T13:47:16.772Z,0.80
2024-02-24T13:48:18.670Z,0.90
2024-02-24T13:49:21.391Z,1.45
2024-02-24T13:50:23.832Z,0.75
2024-02-24T13:51:26.785Z,1.30
2024-02-24T13:52:29.206Z,0.90
2024-02-24T13:53:34.345Z,0.90
2024-02-24T13:54:36.084Z,1.33
2024-02-24T13:55:37.925Z,0.65
2024-02-24T13:57:42.397Z,1.67
2024-02-24T13:58:44.098Z,0.82
2024-02-24T13:59:45.977Z,1.13
2024-02-24T14:12:48.001Z,1.48
2024-02-24T14:13:50.451Z,2.70
2024-02-24T14:14:54.612Z,2.05
2024-02-24T14:15:56.309Z,1.13
2024-02-24T14:18:00.026Z,1.05
2024-02-24T14:19:01.863Z,1.88
2024-02-24T14:20:08.551Z,0.80
2024-02-24T14:21:17.239Z,0.70
2024-02-24T14:23:20.890Z,0.93
2024-02-24T14:24:22.626Z,0.88
2024-02-24T14:26:26.188Z,1.27
2024-02-24T14:28:29.512Z,2.97
2024-02-24T14:30:35.545Z,2.65
2024-02-24T14:31:37.371Z,4.85
2024-02-24T14:32:39.435Z,2.63
2024-02-24T14:33:43.729Z,5.75
2024-02-24T14:34:45.635Z,2.50
2024-02-24T14:35:48.466Z,3.70
2024-02-24T14:36:52.388Z,1.90
2024-02-24T14:37:54.819Z,3.03
2024-02-24T14:38:56.712Z,0.80
2024-02-24T14:39:58.510Z,3.25
2024-02-24T14:42:03.349Z,1.17
2024-02-24T14:43:07.407Z,1.38
2024-02-24T14:44:09.220Z,1.50
2024-02-24T14:45:11.095Z,2.00
2024-02-24T14:47:16.505Z,2.17
2024-02-24T14:48:18.332Z,2.17
2024-02-24T14:49:20.469Z,1.88
2024-02-24T14:50:22.373Z,1.63
2024-02-24T14:51:24.333Z,3.45
2024-02-24T14:52:26.230Z,2.47
2024-02-24T14:53:28.009Z,1.58
2024-02-24T14:54:32.347Z,3.72
2024-02-24T14:55:36.547Z,2.47
2024-02-24T14:56:40.888Z,1.90
2024-02-24T14:57:42.740Z,2.17
2024-02-24T14:59:46.770Z,2.20
2024-02-24T15:00:49.203Z,2.53
2024-02-24T15:01:50.999Z,1.80
2024-02-24T15:03:08.354Z,1.90
2024-02-24T15:04:12.237Z,2.88
2024-02-24T15:05:14.666Z,1.15
2024-02-24T15:06:17.334Z,1.30
2024-02-24T15:07:19.195Z,1.30
2024-02-24T15:09:22.953Z,1.40
2024-02-24T15:10:26.871Z,2.00
2024-02-24T15:11:28.690Z,0.82
2024-02-24T15:12:30.997Z,3.13
2024-02-24T15:13:34.456Z,1.48
2024-02-24T15:14:37.862Z,2.65
2024-02-24T15:15:42.182Z,2.38
2024-02-24T15:16:49.071Z,2.17
2024-02-24T15:17:53.520Z,0.68
2024-02-24T15:18:55.639Z,1.02
2024-02-24T15:21:02.065Z,1.75
2024-02-24T15:22:03.956Z,1.83
2024-02-24T15:23:07.510Z,1.35
2024-02-24T15:24:10.299Z,1.55
2024-02-24T15:25:13.150Z,1.13
2024-02-24T15:26:15.224Z,1.40
2024-02-24T15:27:16.908Z,3.38
2024-02-24T15:29:22.698Z,1.90
2024-02-24T15:32:29.272Z,1.00
2024-02-24T15:33:31.097Z,1.83
2024-02-24T15:35:34.899Z,1.63
2024-02-24T15:37:38.242Z,2.33
2024-02-24T15:39:42.115Z,0.75
2024-02-24T15:40:44.049Z,0.75
2024-02-24T15:41:47.666Z,0.88
2024-02-24T15:42:49.426Z,4.07
2024-02-24T15:44:56.440Z,2.95
2024-02-24T15:45:58.950Z,3.67
2024-02-24T15:47:00.760Z,3.33
2024-02-24T15:49:04.270Z,5.90
2024-02-24T15:51:10.162Z,0.90
2024-02-24T15:52:13.097Z,1.02
2024-02-24T15:53:14.809Z,3.28
2024-02-24T15:54:18.772Z,3.30
2024-02-24T15:55:20.915Z,1.60
2024-02-24T15:56:25.849Z,1.35
2024-02-24T15:57:27.860Z,1.85
2024-02-24T15:58:29.525Z,1.08
2024-02-24T15:59:31.218Z,1.10
2024-02-24T16:00:33.065Z,1.17
2024-02-24T16:02:37.048Z,1.33
2024-02-24T16:03:38.954Z,1.50
2024-02-24T16:05:42.336Z,3.55
2024-02-24T16:06:44.378Z,2.88
2024-02-24T16:07:46.062Z,1.45
2024-02-24T16:08:50.656Z,1.27
2024-02-24T16:09:52.414Z,1.30
2024-02-24T16:10:56.487Z,1.85
2024-02-24T16:13:00.092Z,1.20
2024-02-24T16:14:01.811Z,1.35
2024-02-24T16:16:11.159Z,2.25
2024-02-24T16:17:12.842Z,2.47
2024-02-24T16:19:19.922Z,1.20
2024-02-24T16:20:21.782Z,3.17
2024-02-24T16:22:25.052Z,5.13
2024-02-24T16:24:30.970Z,1.67
2024-02-24T16:25:33.995Z,1.50
2024-02-24T16:26:35.837Z,1.60
2024-02-24T16:27:37.547Z,3.88
2024-02-24T16:28:39.497Z,4.70
2024-02-24T16:29:41.253Z,2.72
2024-02-24T16:30:43.060Z,1.65
2024-02-24T16:31:44.936Z,2.08
2024-02-24T16:32:52.077Z,2.13
2024-02-24T16:33:55.689Z,1.50
2024-02-24T16:34:57.541Z,2.22
2024-02-24T16:37:01.292Z,1.10
2024-02-24T16:38:03.098Z,2.65
2024-02-24T16:41:12.172Z,1.33
2024-02-24T16:43:15.384Z,2.17
2024-02-24T16:45:18.869Z,4.60
2024-02-24T16:47:23.147Z,3.17
2024-02-24T16:48:25.280Z,3.22
2024-02-24T16:49:27.188Z,7.32
2024-02-24T16:50:29.127Z,7.00
2024-02-24T16:51:30.904Z,2.35
2024-02-24T16:53:36.698Z,2.03
2024-02-24T16:54:39.297Z,2.97
2024-02-24T16:55:41.352Z,2.40
2024-02-24T16:56:43.262Z,1.20
2024-02-24T16:57:46.024Z,1.70
2024-02-24T16:58:47.807Z,2.72
2024-02-24T17:02:11.633Z,0.70
2024-02-24T17:03:13.567Z,1.10
2024-02-24T17:04:15.436Z,2.30